Terminal Aerodrome Forecast
Issued by NWS

Home | Current Version | Previous Version | Text Only | Print | Product List | Glossary On
Versions: 1 2 3 4 5 6 7 8 9 10 11 12 13 14 15 16 17 18 19
000
FTUS45 KSLC 161127
TAFPVU
TAF
KPVU 161127Z 1612/1712 27005KT 6SM BR VCSH SCT040 BKN100
     FM161600 31010KT 2SM -SN SCT009 BKN015
     FM162300 33011KT P6SM VCSH BKN030
     FM170300 30007KT P6SM VCSH BKN040 OVC070=

USA.gov is the U.S. government's official web portal to all federal, state and local government web resources and services.